createdAt,value
2019-04-25T00:00:52.054Z,0.00
2019-04-25T00:01:52.421Z,0.00
2019-04-25T00:02:52.033Z,0.00
2019-04-25T00:03:53.360Z,0.00
2019-04-25T00:04:52.013Z,0.00
2019-04-25T00:05:52.328Z,0.00
2019-04-25T00:06:52.185Z,0.00
2019-04-25T00:07:51.984Z,0.00
2019-04-25T00:08:53.474Z,0.00
2019-04-25T00:09:51.963Z,0.00
2019-04-25T00:10:51.957Z,0.00
2019-04-25T00:11:52.406Z,0.00
2019-04-25T00:12:51.934Z,0.00
2019-04-25T00:13:51.924Z,0.00
2019-04-25T00:14:51.915Z,0.00
2019-04-25T00:15:51.989Z,0.00
2019-04-25T00:16:51.933Z,0.00
2019-04-25T00:17:52.225Z,0.00
2019-04-25T00:18:51.875Z,0.00
2019-04-25T00:19:52.842Z,0.00
2019-04-25T00:20:52.241Z,0.00
2019-04-25T00:21:51.857Z,0.00
2019-04-25T00:22:53.365Z,0.00
2019-04-25T00:23:51.826Z,0.00
2019-04-25T00:24:52.935Z,0.00
2019-04-25T00:25:52.752Z,0.00
2019-04-25T00:26:52.532Z,0.00
2019-04-25T00:27:51.786Z,0.00
2019-04-25T00:28:52.463Z,0.00
2019-04-25T00:29:51.767Z,0.00
2019-04-25T00:30:52.329Z,0.00
2019-04-25T00:31:53.290Z,0.00
2019-04-25T00:32:51.738Z,0.00
2019-04-25T00:33:53.237Z,0.00
2019-04-25T00:34:52.075Z,0.00
2019-04-25T00:35:52.750Z,0.00
2019-04-25T00:36:51.699Z,0.00
2019-04-25T00:37:52.541Z,0.00
2019-04-25T00:38:52.328Z,0.00
2019-04-25T00:39:51.803Z,0.00
2019-04-25T00:40:52.422Z,0.00
2019-04-25T00:41:52.057Z,0.00
2019-04-25T00:42:53.442Z,0.00
2019-04-25T00:43:52.554Z,0.00
2019-04-25T00:44:52.498Z,0.00
2019-04-25T00:45:52.681Z,0.00
2019-04-25T00:46:56.551Z,0.00
2019-04-25T00:47:52.807Z,0.00
2019-04-25T00:48:52.665Z,0.00
2019-04-25T00:49:52.399Z,0.00
2019-04-25T00:50:53.511Z,0.00
2019-04-25T00:51:52.365Z,0.00
2019-04-25T00:52:52.545Z,0.00
2019-04-25T00:53:53.690Z,0.00
2019-04-25T00:54:52.620Z,0.00
2019-04-25T00:55:52.535Z,0.00
2019-04-25T00:56:52.761Z,0.00
2019-04-25T00:57:52.558Z,0.00
2019-04-25T00:58:53.131Z,0.00
2019-04-25T00:59:52.868Z,0.00
2019-04-25T01:00:53.058Z,0.00
2019-04-25T01:01:52.975Z,0.00
2019-04-25T01:02:53.356Z,0.00
2019-04-25T01:03:53.348Z,0.00
2019-04-25T01:04:52.079Z,0.00
2019-04-25T01:05:53.151Z,0.00
2019-04-25T01:06:51.998Z,0.00
2019-04-25T01:07:52.440Z,0.00
2019-04-25T01:08:54.064Z,0.00
2019-04-25T01:09:52.472Z,0.00
2019-04-25T01:10:52.262Z,0.00
2019-04-25T01:11:52.331Z,0.00
2019-04-25T01:12:52.307Z,0.00
2019-04-25T01:13:52.498Z,0.00
2019-04-25T01:14:52.824Z,0.00
2019-04-25T01:15:52.869Z,0.00
2019-04-25T01:16:52.976Z,0.00
2019-04-25T01:17:52.352Z,0.00
2019-04-25T01:18:51.288Z,0.00
2019-04-25T01:19:51.278Z,0.00
2019-04-25T01:20:51.268Z,0.00
2019-04-25T01:21:51.294Z,0.00
2019-04-25T01:22:51.393Z,0.00
2019-04-25T01:23:51.472Z,0.00
2019-04-25T01:24:51.469Z,0.00
2019-04-25T01:25:51.597Z,0.00
2019-04-25T01:26:51.682Z,0.00
2019-04-25T01:27:52.222Z,0.00
2019-04-25T01:28:51.892Z,0.00
2019-04-25T01:29:51.937Z,0.00
2019-04-25T01:30:51.921Z,0.00
2019-04-25T01:31:52.147Z,0.00
2019-04-25T01:32:51.149Z,0.00
2019-04-25T01:33:51.139Z,0.00
2019-04-25T01:34:53.852Z,0.00
2019-04-25T01:35:51.120Z,0.00
2019-04-25T01:36:51.110Z,0.00
2019-04-25T01:37:51.172Z,0.00
2019-04-25T01:38:51.124Z,0.00
2019-04-25T01:39:51.159Z,0.00
2019-04-25T01:40:51.236Z,0.00
2019-04-25T01:41:51.325Z,0.00
2019-04-25T01:42:51.562Z,0.00
2019-04-25T01:43:53.228Z,0.00
2019-04-25T01:44:51.636Z,0.00
2019-04-25T01:45:51.818Z,0.00
2019-04-25T01:46:51.841Z,0.00
2019-04-25T01:47:52.043Z,0.00
2019-04-25T01:48:50.991Z,0.00
2019-04-25T01:49:50.982Z,0.00
2019-04-25T01:50:50.972Z,0.00
2019-04-25T01:51:50.963Z,0.00
2019-04-25T01:52:50.953Z,0.00
2019-04-25T01:53:50.942Z,0.00
2019-04-25T01:54:51.033Z,0.00
2019-04-25T01:55:58.145Z,0.00
2019-04-25T01:56:50.958Z,0.00
2019-04-25T01:57:50.961Z,0.00
2019-04-25T01:58:51.147Z,0.00
2019-04-25T01:59:51.394Z,0.00
2019-04-25T02:00:52.075Z,0.00
2019-04-25T02:01:51.056Z,0.00
2019-04-25T02:02:51.146Z,0.00
2019-04-25T02:03:51.257Z,0.00
2019-04-25T02:04:51.420Z,0.00
2019-04-25T02:05:51.404Z,0.00
2019-04-25T02:06:51.472Z,0.00
2019-04-25T02:07:51.535Z,0.00
2019-04-25T02:08:50.890Z,0.00
2019-04-25T02:09:50.925Z,0.00
2019-04-25T02:10:50.885Z,0.00
2019-04-25T02:11:51.059Z,0.00
2019-04-25T02:12:51.380Z,0.00
2019-04-25T02:13:51.432Z,0.00
2019-04-25T02:14:52.679Z,0.00
2019-04-25T02:15:51.533Z,0.00
2019-04-25T02:16:50.715Z,0.00
2019-04-25T02:17:50.928Z,0.00
2019-04-25T02:18:51.019Z,0.00
2019-04-25T02:19:51.996Z,0.00
2019-04-25T02:20:52.249Z,0.00
2019-04-25T02:21:51.448Z,0.00
2019-04-25T02:22:52.136Z,0.00
2019-04-25T02:23:50.648Z,0.00
2019-04-25T02:24:50.636Z,0.00
2019-04-25T02:25:50.629Z,0.00
2019-04-25T02:26:50.617Z,0.00
2019-04-25T02:27:50.608Z,0.00
2019-04-25T02:28:50.598Z,0.00
2019-04-25T02:29:50.588Z,0.00
2019-04-25T02:30:50.580Z,0.00
2019-04-25T02:31:50.569Z,0.00
2019-04-25T02:32:50.559Z,0.00
2019-04-25T02:33:50.548Z,0.00
2019-04-25T02:34:50.542Z,0.00
2019-04-25T02:35:50.530Z,0.00
2019-04-25T02:36:50.519Z,0.00
2019-04-25T02:37:50.510Z,0.00
2019-04-25T02:38:50.500Z,0.00
2019-04-25T02:39:50.492Z,0.00
2019-04-25T02:40:50.482Z,0.00
2019-04-25T02:41:50.472Z,0.00
2019-04-25T02:42:50.463Z,0.00
2019-04-25T02:43:50.453Z,0.00
2019-04-25T02:44:50.444Z,0.00
2019-04-25T02:45:50.434Z,0.00
2019-04-25T02:46:50.423Z,0.00
2019-04-25T02:47:50.416Z,0.00
2019-04-25T02:48:50.404Z,0.00
2019-04-25T02:49:50.393Z,0.00
2019-04-25T02:50:50.384Z,0.00
2019-04-25T02:51:50.381Z,0.00
2019-04-25T02:52:50.366Z,0.00
2019-04-25T02:53:50.356Z,0.00
2019-04-25T02:54:50.343Z,0.00
2019-04-25T02:55:50.335Z,0.00
2019-04-25T02:56:50.325Z,0.00
2019-04-25T02:57:50.314Z,0.00
2019-04-25T02:58:50.307Z,0.00
2019-04-25T02:59:50.294Z,0.00
2019-04-25T03:00:59.756Z,0.00
2019-04-25T03:01:50.277Z,0.00
2019-04-25T03:02:50.264Z,0.00
2019-04-25T03:03:50.260Z,0.00
2019-04-25T03:04:50.298Z,0.00
2019-04-25T03:05:50.235Z,0.00
2019-04-25T03:06:50.229Z,0.00
2019-04-25T03:07:50.227Z,0.00
2019-04-25T03:08:50.208Z,0.00
2019-04-25T03:09:50.200Z,0.00
2019-04-25T03:10:50.186Z,0.00
2019-04-25T03:11:50.176Z,0.00
2019-04-25T03:12:50.165Z,0.00
2019-04-25T03:13:50.156Z,0.00
2019-04-25T03:14:50.146Z,0.00
2019-04-25T03:15:52.822Z,0.00
2019-04-25T03:16:50.127Z,0.00
2019-04-25T03:17:50.117Z,0.00
2019-04-25T03:18:50.107Z,0.00
2019-04-25T03:19:50.097Z,0.00
2019-04-25T03:20:50.088Z,0.00
2019-04-25T03:21:50.078Z,0.00
2019-04-25T03:22:50.077Z,0.00
2019-04-25T03:23:50.057Z,0.00
2019-04-25T03:24:50.063Z,0.00
2019-04-25T03:25:50.036Z,0.00
2019-04-25T03:26:50.028Z,0.00
2019-04-25T03:27:50.017Z,0.00
2019-04-25T03:28:50.006Z,0.00
2019-04-25T03:29:49.999Z,0.00
2019-04-25T03:30:49.988Z,0.00
2019-04-25T03:31:49.978Z,0.00
2019-04-25T03:32:51.665Z,0.00
2019-04-25T03:33:49.959Z,0.00
2019-04-25T03:34:49.947Z,0.00
2019-04-25T03:35:49.938Z,0.00
2019-04-25T03:36:49.927Z,0.00
2019-04-25T03:37:49.917Z,0.00
2019-04-25T03:38:49.908Z,0.00
2019-04-25T03:39:49.900Z,0.00
2019-04-25T03:40:49.887Z,0.00
2019-04-25T03:41:49.880Z,0.00
2019-04-25T03:42:49.868Z,0.00
2019-04-25T03:43:49.867Z,0.00
2019-04-25T03:44:49.850Z,0.00
2019-04-25T03:45:49.838Z,0.00
2019-04-25T03:46:49.829Z,0.00
2019-04-25T03:47:49.819Z,4.00
2019-04-25T03:48:49.810Z,4.00
2019-04-25T03:49:49.799Z,4.00
2019-04-25T03:50:49.789Z,4.00
2019-04-25T03:51:49.780Z,0.00
2019-04-25T03:52:49.771Z,4.00
2019-04-25T03:53:49.762Z,4.00
2019-04-25T03:54:49.750Z,8.00
2019-04-25T03:55:49.741Z,4.00
2019-04-25T03:56:53.758Z,8.00
2019-04-25T03:57:49.721Z,8.00
2019-04-25T03:58:49.711Z,8.00
2019-04-25T03:59:49.701Z,12.00
2019-04-25T04:00:49.696Z,12.00
2019-04-25T04:01:49.681Z,16.00
2019-04-25T04:02:49.673Z,20.00
2019-04-25T04:03:49.662Z,20.00
2019-04-25T04:04:49.652Z,20.00
2019-04-25T04:05:49.643Z,24.00
2019-04-25T04:06:49.633Z,28.00
2019-04-25T04:07:49.624Z,32.00
2019-04-25T04:08:49.613Z,36.00
2019-04-25T04:09:49.605Z,48.00
2019-04-25T04:10:49.595Z,56.00
2019-04-25T04:11:49.585Z,64.00
2019-04-25T04:12:49.575Z,72.00
2019-04-25T04:13:49.565Z,76.00
2019-04-25T04:14:49.556Z,88.00
2019-04-25T04:15:49.547Z,104.00
2019-04-25T04:16:49.537Z,112.00
2019-04-25T04:17:49.526Z,120.00
2019-04-25T04:18:49.517Z,132.00
2019-04-25T04:19:49.508Z,144.00
2019-04-25T04:20:49.497Z,156.00
2019-04-25T04:21:49.488Z,172.00
2019-04-25T04:22:49.478Z,196.00
2019-04-25T04:23:49.469Z,220.00
2019-04-25T04:24:49.459Z,240.00
2019-04-25T04:25:49.450Z,260.00
2019-04-25T04:26:49.440Z,292.00
2019-04-25T04:27:49.431Z,324.00
2019-04-25T04:28:49.420Z,360.00
2019-04-25T04:29:49.411Z,400.00
2019-04-25T04:30:49.404Z,440.00
2019-04-25T04:31:49.392Z,492.00
2019-04-25T04:32:49.382Z,520.00
2019-04-25T04:33:49.373Z,552.00
2019-04-25T04:34:49.364Z,584.00
2019-04-25T04:35:49.354Z,612.00
2019-04-25T04:36:49.343Z,624.00
2019-04-25T04:37:49.334Z,632.00
2019-04-25T04:38:49.378Z,644.00
2019-04-25T04:39:49.316Z,668.00
2019-04-25T04:40:49.305Z,696.00
2019-04-25T04:41:49.296Z,724.00
2019-04-25T04:42:49.286Z,740.00
2019-04-25T04:43:49.277Z,760.00
2019-04-25T04:44:49.269Z,780.00
2019-04-25T04:45:49.258Z,800.00
2019-04-25T04:46:49.248Z,816.00
2019-04-25T04:47:49.239Z,816.00
2019-04-25T04:48:49.237Z,828.00
2019-04-25T04:49:49.220Z,820.00
2019-04-25T04:50:49.214Z,812.00
2019-04-25T04:51:49.201Z,828.00
2019-04-25T04:52:49.191Z,856.00
2019-04-25T04:53:49.188Z,912.00
2019-04-25T04:54:49.172Z,976.00
2019-04-25T04:55:49.163Z,1084.00
2019-04-25T04:56:49.153Z,1224.00
2019-04-25T04:57:49.156Z,1384.00
2019-04-25T04:58:49.136Z,1564.00
2019-04-25T04:59:49.126Z,1728.00
2019-04-25T05:00:49.115Z,1880.00
2019-04-25T05:01:49.106Z,2032.00
2019-04-25T05:02:49.097Z,2192.00
2019-04-25T05:03:49.088Z,2320.00
2019-04-25T05:04:49.078Z,2436.00
2019-04-25T05:05:49.069Z,2480.00
2019-04-25T05:06:49.062Z,2408.00
2019-04-25T05:07:49.055Z,2324.00
2019-04-25T05:08:49.041Z,2256.00
2019-04-25T05:09:49.033Z,2176.00
2019-04-25T05:10:49.023Z,2016.00
2019-04-25T05:11:49.014Z,1824.00
2019-04-25T05:12:49.004Z,1720.00
2019-04-25T05:13:48.995Z,1724.00
2019-04-25T05:14:48.987Z,1652.00
2019-04-25T05:15:48.978Z,1644.00
2019-04-25T05:16:49.620Z,1596.00
2019-04-25T05:17:48.959Z,1548.00
2019-04-25T05:18:48.950Z,1392.00
2019-04-25T05:19:48.941Z,1316.00
2019-04-25T05:20:48.938Z,1392.00
2019-04-25T05:21:48.923Z,1488.00
2019-04-25T05:22:48.914Z,1628.00
2019-04-25T05:23:48.905Z,1764.00
2019-04-25T05:24:48.897Z,1932.00
2019-04-25T05:25:48.891Z,2060.00
2019-04-25T05:26:48.878Z,2200.00
2019-04-25T05:28:00.101Z,2392.00
2019-04-25T05:28:48.860Z,2512.00
2019-04-25T05:29:48.850Z,2596.00
2019-04-25T05:30:48.842Z,2664.00
2019-04-25T05:31:48.833Z,2700.00
2019-04-25T05:32:48.918Z,2704.00
2019-04-25T05:33:48.815Z,2644.00
2019-04-25T05:34:49.369Z,2516.00
2019-04-25T05:35:48.798Z,2384.00
2019-04-25T05:36:48.789Z,2268.00
2019-04-25T05:37:48.780Z,2252.00
2019-04-25T05:38:48.772Z,2348.00
2019-04-25T05:39:48.764Z,2496.00
2019-04-25T05:40:48.753Z,2588.00
2019-04-25T05:41:48.747Z,2664.00
2019-04-25T05:42:48.736Z,2700.00
2019-04-25T05:43:48.726Z,2784.00
2019-04-25T05:44:48.717Z,2952.00
2019-04-25T05:45:48.709Z,3256.00
2019-04-25T05:46:48.702Z,3640.00
2019-04-25T05:47:48.691Z,4012.00
2019-04-25T05:48:48.687Z,4236.00
2019-04-25T05:49:48.673Z,4248.00
2019-04-25T05:50:48.667Z,4072.00
2019-04-25T05:51:48.656Z,3756.00
2019-04-25T05:52:48.647Z,3372.00
2019-04-25T05:53:48.638Z,2992.00
2019-04-25T05:54:48.629Z,2816.00
2019-04-25T05:55:48.620Z,2664.00
2019-04-25T05:56:48.612Z,2512.00
2019-04-25T05:57:50.211Z,2368.00
2019-04-25T05:58:48.594Z,2188.00
2019-04-25T05:59:48.585Z,2120.00
2019-04-25T06:00:48.575Z,2312.00
2019-04-25T06:01:48.567Z,2724.00
2019-04-25T06:02:48.557Z,3252.00
2019-04-25T06:03:48.549Z,4044.00
2019-04-25T06:04:48.539Z,5216.00
2019-04-25T06:05:48.532Z,6484.00
2019-04-25T06:06:48.523Z,7480.00
2019-04-25T06:07:48.520Z,7604.00
2019-04-25T06:08:48.505Z,7340.00
2019-04-25T06:09:48.495Z,7032.00
2019-04-25T06:10:48.487Z,7084.00
2019-04-25T06:11:48.478Z,7208.00
2019-04-25T06:12:48.469Z,6996.00
2019-04-25T06:13:48.461Z,7676.00
2019-04-25T06:14:48.452Z,7748.00
2019-04-25T06:15:48.444Z,7648.00
2019-04-25T06:16:48.435Z,7744.00
2019-04-25T06:17:48.427Z,7520.00
2019-04-25T06:18:48.419Z,6472.00
2019-04-25T06:19:48.410Z,6020.00
2019-04-25T06:20:48.404Z,5776.00
2019-04-25T06:21:48.394Z,5868.00
2019-04-25T06:22:48.385Z,5808.00
2019-04-25T06:23:48.378Z,5796.00
2019-04-25T06:24:48.371Z,5656.00
2019-04-25T06:25:48.366Z,5608.00
2019-04-25T06:26:48.354Z,5496.00
2019-04-25T06:27:56.554Z,5564.00
2019-04-25T06:28:52.469Z,5832.00
2019-04-25T06:29:58.266Z,6096.00
2019-04-25T06:30:48.320Z,6288.00
2019-04-25T06:31:48.311Z,6480.00
2019-04-25T06:32:48.302Z,6464.00
2019-04-25T06:33:48.395Z,6396.00
2019-04-25T06:34:48.287Z,6244.00
2019-04-25T06:35:48.278Z,6080.00
2019-04-25T06:36:48.269Z,5948.00
2019-04-25T06:37:48.262Z,5836.00
2019-04-25T06:38:48.254Z,5640.00
2019-04-25T06:39:48.246Z,5512.00
2019-04-25T06:40:48.236Z,5416.00
2019-04-25T06:41:48.230Z,5384.00
2019-04-25T06:42:48.221Z,5388.00
2019-04-25T06:43:48.213Z,5356.00
2019-04-25T06:44:48.205Z,5280.00
2019-04-25T06:45:50.169Z,5240.00
2019-04-25T06:46:48.189Z,5032.00
2019-04-25T06:47:48.181Z,5004.00
2019-04-25T06:48:48.173Z,5260.00
2019-04-25T06:49:48.164Z,5208.00
2019-04-25T06:50:48.159Z,4724.00
2019-04-25T06:51:48.148Z,4364.00
2019-04-25T06:52:48.139Z,4396.00
2019-04-25T06:53:48.181Z,4784.00
2019-04-25T06:54:48.123Z,5452.00
2019-04-25T06:55:48.116Z,6076.00
2019-04-25T06:56:48.106Z,6704.00
2019-04-25T06:57:48.099Z,7472.00
2019-04-25T06:58:48.091Z,8228.00
2019-04-25T06:59:48.085Z,8796.00
2019-04-25T07:00:58.010Z,8992.00
2019-04-25T07:01:48.067Z,8700.00
2019-04-25T07:02:48.059Z,8664.00
2019-04-25T07:03:48.052Z,8940.00
2019-04-25T07:04:48.043Z,8028.00
2019-04-25T07:05:48.035Z,7292.00
2019-04-25T07:06:49.477Z,6668.00
2019-04-25T07:07:48.020Z,6476.00
2019-04-25T07:08:48.012Z,6544.00
2019-04-25T07:09:48.032Z,7084.00
2019-04-25T07:10:47.997Z,8076.00
2019-04-25T07:11:48.258Z,8612.00
2019-04-25T07:12:47.985Z,8788.00
2019-04-25T07:13:47.973Z,8668.00
2019-04-25T07:14:47.966Z,8428.00
2019-04-25T07:15:47.958Z,8384.00
2019-04-25T07:16:47.950Z,8660.00
2019-04-25T07:17:47.943Z,10156.00
2019-04-25T07:18:47.936Z,12256.00
2019-04-25T07:19:47.929Z,12156.00
2019-04-25T07:20:47.921Z,16256.00
2019-04-25T07:21:47.914Z,13572.00
2019-04-25T07:22:47.908Z,19008.00
2019-04-25T07:23:47.901Z,19904.00
2019-04-25T07:24:47.893Z,18816.00
2019-04-25T07:25:47.887Z,19808.00
2019-04-25T07:26:47.882Z,20160.00
2019-04-25T07:27:47.877Z,20800.00
2019-04-25T07:28:47.871Z,21088.00
2019-04-25T07:29:47.867Z,22304.00
2019-04-25T07:30:52.274Z,22848.00
2019-04-25T07:31:47.860Z,23488.00
2019-04-25T07:32:47.855Z,17728.00
2019-04-25T07:33:47.853Z,16512.00
2019-04-25T07:34:47.850Z,14912.00
2019-04-25T07:35:47.847Z,13736.00
2019-04-25T07:36:47.843Z,13896.00
2019-04-25T07:37:47.839Z,11960.00
2019-04-25T07:38:47.836Z,12124.00
2019-04-25T07:39:47.835Z,11060.00
2019-04-25T07:40:47.827Z,10432.00
2019-04-25T07:41:47.828Z,9488.00
2019-04-25T07:42:47.820Z,8740.00
2019-04-25T07:43:47.815Z,8016.00
2019-04-25T07:44:52.495Z,7424.00
2019-04-25T07:45:47.816Z,7696.00
2019-04-25T07:46:47.801Z,8960.00
2019-04-25T07:47:47.829Z,9976.00
2019-04-25T07:48:47.790Z,9748.00
2019-04-25T07:49:47.785Z,9352.00
2019-04-25T07:50:47.780Z,8708.00
2019-04-25T07:51:47.774Z,8176.00
2019-04-25T07:52:47.768Z,7212.00
2019-04-25T07:53:47.761Z,7320.00
2019-04-25T07:54:47.756Z,9636.00
2019-04-25T07:55:47.750Z,10176.00
2019-04-25T07:56:47.743Z,9304.00
2019-04-25T07:57:47.737Z,9664.00
2019-04-25T07:58:52.135Z,10032.00
2019-04-25T07:59:47.724Z,8756.00
2019-04-25T08:00:47.717Z,7588.00
2019-04-25T08:01:47.711Z,7112.00
2019-04-25T08:02:47.705Z,7140.00
2019-04-25T08:03:47.698Z,6168.00
2019-04-25T08:04:47.701Z,5148.00
2019-04-25T08:05:47.685Z,4812.00
2019-04-25T08:06:47.679Z,5140.00
2019-04-25T08:07:47.672Z,5568.00
2019-04-25T08:08:47.664Z,5596.00
2019-04-25T08:09:47.657Z,6116.00
2019-04-25T08:10:47.651Z,5796.00
2019-04-25T08:11:47.644Z,4896.00
2019-04-25T08:12:47.638Z,4188.00
2019-04-25T08:13:47.631Z,3912.00
2019-04-25T08:14:47.623Z,4060.00
2019-04-25T08:15:47.615Z,4496.00
2019-04-25T08:16:47.610Z,5148.00
2019-04-25T08:17:47.607Z,6376.00
2019-04-25T08:18:47.594Z,9144.00
2019-04-25T08:19:47.588Z,21888.00
2019-04-25T08:20:47.579Z,24960.00
2019-04-25T08:21:47.572Z,32032.00
2019-04-25T08:22:55.676Z,20320.00
2019-04-25T08:23:47.561Z,20128.00
2019-04-25T08:24:47.558Z,18400.00
2019-04-25T08:25:47.549Z,19232.00
2019-04-25T08:26:47.543Z,21344.00
2019-04-25T08:27:47.546Z,20416.00
2019-04-25T08:28:54.588Z,18688.00
2019-04-25T08:29:47.528Z,18432.00
2019-04-25T08:30:47.523Z,18976.00
2019-04-25T08:31:47.519Z,20192.00
2019-04-25T08:32:47.523Z,22240.00
2019-04-25T08:33:47.509Z,23776.00
2019-04-25T08:34:47.504Z,26080.00
2019-04-25T08:36:03.359Z,23968.00
2019-04-25T08:36:47.495Z,22144.00
2019-04-25T08:37:47.491Z,24544.00
2019-04-25T08:38:47.487Z,27776.00
2019-04-25T08:39:47.483Z,28416.00
2019-04-25T08:40:47.481Z,21664.00
2019-04-25T08:41:47.477Z,17952.00
2019-04-25T08:42:47.473Z,17920.00
2019-04-25T08:43:47.473Z,16376.00
2019-04-25T08:44:47.466Z,13792.00
2019-04-25T08:45:47.469Z,11828.00
2019-04-25T08:46:48.766Z,10604.00
2019-04-25T08:47:47.455Z,11076.00
2019-04-25T08:48:47.450Z,11144.00
2019-04-25T08:49:49.452Z,10948.00
2019-04-25T08:50:47.444Z,10588.00
2019-04-25T08:51:47.438Z,10808.00
2019-04-25T08:52:47.441Z,10788.00
2019-04-25T08:53:47.429Z,9872.00
2019-04-25T08:54:47.788Z,8884.00
2019-04-25T08:55:47.419Z,10296.00
2019-04-25T08:56:47.414Z,11648.00
2019-04-25T08:57:47.411Z,11720.00
2019-04-25T08:58:47.405Z,11104.00
2019-04-25T08:59:52.260Z,11468.00
2019-04-25T09:00:58.265Z,12044.00
2019-04-25T09:01:47.389Z,13708.00
2019-04-25T09:02:47.385Z,15052.00
2019-04-25T09:03:47.381Z,13792.00
2019-04-25T09:04:47.377Z,10136.00
2019-04-25T09:05:47.398Z,9420.00
2019-04-25T09:06:47.366Z,15948.00
2019-04-25T09:07:47.361Z,25024.00
2019-04-25T09:08:47.356Z,39296.00
2019-04-25T09:09:47.352Z,50688.00
2019-04-25T09:10:47.348Z,82688.00
2019-04-25T09:11:47.345Z,53024.00
2019-04-25T09:12:47.342Z,93920.00
2019-04-25T09:13:47.339Z,60992.00
2019-04-25T09:14:47.339Z,109632.00
2019-04-25T09:15:47.339Z,87488.00
2019-04-25T09:16:47.336Z,89408.00
2019-04-25T09:17:47.339Z,71520.00
2019-04-25T09:18:47.339Z,99680.00
2019-04-25T09:19:47.339Z,103200.00
2019-04-25T09:20:47.341Z,85824.00
2019-04-25T09:21:49.498Z,97696.00
2019-04-25T09:22:47.352Z,81856.00
2019-04-25T09:23:47.350Z,64896.00
2019-04-25T09:24:47.353Z,22848.00
2019-04-25T09:25:47.359Z,38368.00
2019-04-25T09:26:47.361Z,27104.00
2019-04-25T09:27:47.364Z,22112.00
2019-04-25T09:28:47.367Z,21664.00
2019-04-25T09:29:47.513Z,20544.00
2019-04-25T09:30:47.375Z,15744.00
2019-04-25T09:31:47.373Z,18400.00
2019-04-25T09:32:47.863Z,19296.00
2019-04-25T09:33:47.375Z,20256.00
2019-04-25T09:34:48.053Z,20992.00
2019-04-25T09:35:47.375Z,19744.00
2019-04-25T09:36:47.375Z,18688.00
2019-04-25T09:37:47.373Z,18912.00
2019-04-25T09:38:48.566Z,22368.00
2019-04-25T09:39:47.371Z,20448.00
2019-04-25T09:40:47.369Z,19392.00
2019-04-25T09:41:47.368Z,17504.00
2019-04-25T09:42:47.368Z,15736.00
2019-04-25T09:43:47.366Z,16140.00
2019-04-25T09:44:47.363Z,16544.00
2019-04-25T09:45:47.361Z,15920.00
2019-04-25T09:46:47.797Z,14744.00
2019-04-25T09:47:47.359Z,14000.00
2019-04-25T09:48:47.365Z,14104.00
2019-04-25T09:49:48.121Z,14488.00
2019-04-25T09:50:47.762Z,14860.00
2019-04-25T09:51:47.347Z,15120.00
2019-04-25T09:52:48.695Z,15484.00
2019-04-25T09:53:50.986Z,15424.00
2019-04-25T09:54:47.337Z,15520.00
2019-04-25T09:55:48.278Z,16116.00
2019-04-25T09:56:47.331Z,16704.00
2019-04-25T09:57:47.560Z,16672.00
2019-04-25T09:58:48.531Z,15784.00
2019-04-25T09:59:48.142Z,15208.00
2019-04-25T10:00:47.666Z,14880.00
2019-04-25T10:01:48.227Z,14648.00
2019-04-25T10:02:47.309Z,14312.00
2019-04-25T10:03:47.411Z,14036.00
2019-04-25T10:04:48.128Z,14112.00
2019-04-25T10:05:47.297Z,14512.00
2019-04-25T10:06:47.595Z,15036.00
2019-04-25T10:07:48.894Z,15756.00
2019-04-25T10:08:47.509Z,17440.00
2019-04-25T10:09:47.281Z,22528.00
2019-04-25T10:10:47.278Z,29824.00
2019-04-25T10:11:47.275Z,20736.00
2019-04-25T10:12:47.487Z,20128.00
2019-04-25T10:13:47.267Z,17952.00
2019-04-25T10:14:47.941Z,16992.00
2019-04-25T10:15:47.960Z,16672.00
2019-04-25T10:16:47.322Z,18112.00
2019-04-25T10:17:47.254Z,18368.00
2019-04-25T10:18:47.633Z,20992.00
2019-04-25T10:19:47.996Z,23616.00
2019-04-25T10:20:47.496Z,36000.00
2019-04-25T10:21:47.656Z,39168.00
2019-04-25T10:22:47.236Z,116960.00
2019-04-25T10:23:48.198Z,115200.00
2019-04-25T10:24:59.046Z,71776.00
2019-04-25T10:25:47.232Z,108000.00
2019-04-25T10:26:48.124Z,93120.00
2019-04-25T10:27:49.213Z,74624.00
2019-04-25T10:28:47.555Z,96352.00
2019-04-25T10:29:53.462Z,95072.00
2019-04-25T10:30:47.234Z,109408.00
2019-04-25T10:31:47.244Z,113632.00
2019-04-25T10:32:48.030Z,120576.00
2019-04-25T10:33:47.243Z,43136.00
2019-04-25T10:34:47.248Z,22848.00
2019-04-25T10:35:53.099Z,40896.00
2019-04-25T10:36:47.257Z,126496.00
2019-04-25T10:37:47.262Z,49568.00
2019-04-25T10:39:02.158Z,40544.00
2019-04-25T10:39:47.274Z,48096.00
2019-04-25T10:40:47.610Z,29152.00
2019-04-25T10:41:48.270Z,23392.00
2019-04-25T10:42:49.241Z,23552.00
2019-04-25T10:43:48.246Z,116384.00
2019-04-25T10:44:48.312Z,20512.00
2019-04-25T10:45:47.312Z,17536.00
2019-04-25T10:46:47.613Z,13724.00
2019-04-25T10:47:47.308Z,9404.00
2019-04-25T10:48:48.034Z,7696.00
2019-04-25T10:49:47.364Z,4920.00
2019-04-25T10:50:48.438Z,3980.00
2019-04-25T10:51:47.997Z,3652.00
2019-04-25T10:52:48.312Z,3016.00
2019-04-25T10:53:47.318Z,2412.00
2019-04-25T10:54:47.946Z,2392.00
2019-04-25T10:55:47.615Z,2840.00
2019-04-25T10:56:48.302Z,3496.00
2019-04-25T10:57:48.188Z,4260.00
2019-04-25T10:58:47.982Z,6820.00
2019-04-25T11:00:00.737Z,10764.00
2019-04-25T11:00:47.762Z,11092.00
2019-04-25T11:01:47.382Z,10412.00
2019-04-25T11:02:47.500Z,9496.00
2019-04-25T11:03:47.300Z,8744.00
2019-04-25T11:04:48.865Z,8764.00
2019-04-25T11:05:47.588Z,21088.00
2019-04-25T11:06:47.293Z,54464.00
2019-04-25T11:07:47.289Z,19680.00
2019-04-25T11:08:47.285Z,12780.00
2019-04-25T11:09:48.029Z,9128.00
2019-04-25T11:10:49.007Z,9964.00
2019-04-25T11:11:48.138Z,12188.00
2019-04-25T11:12:47.279Z,17088.00
2019-04-25T11:13:47.273Z,20480.00
2019-04-25T11:14:47.271Z,25728.00
2019-04-25T11:15:47.267Z,25856.00
2019-04-25T11:16:48.294Z,32064.00
2019-04-25T11:17:47.979Z,25664.00
2019-04-25T11:18:47.615Z,28416.00
2019-04-25T11:19:47.258Z,58688.00
2019-04-25T11:20:47.255Z,67360.00
2019-04-25T11:21:47.744Z,61088.00
2019-04-25T11:22:47.286Z,62752.00
2019-04-25T11:23:48.787Z,60864.00
2019-04-25T11:24:47.254Z,59264.00
2019-04-25T11:25:47.323Z,12640.00
2019-04-25T11:26:50.144Z,53120.00
2019-04-25T11:27:49.581Z,52032.00
2019-04-25T11:28:47.260Z,64736.00
2019-04-25T11:29:47.269Z,14840.00
2019-04-25T11:30:47.265Z,22944.00
2019-04-25T11:31:47.403Z,68480.00
2019-04-25T11:32:47.948Z,60224.00
2019-04-25T11:33:47.278Z,54720.00
2019-04-25T11:34:47.358Z,23296.00
2019-04-25T11:35:48.087Z,30784.00
2019-04-25T11:36:47.284Z,21856.00
2019-04-25T11:37:48.377Z,67648.00
2019-04-25T11:38:47.403Z,24448.00
2019-04-25T11:39:47.352Z,18688.00
2019-04-25T11:40:49.309Z,71264.00
2019-04-25T11:41:48.254Z,21984.00
2019-04-25T11:42:48.230Z,51776.00
2019-04-25T11:43:47.306Z,69152.00
2019-04-25T11:44:47.309Z,29952.00
2019-04-25T11:45:47.486Z,20192.00
2019-04-25T11:46:47.317Z,40352.00
2019-04-25T11:47:48.337Z,37024.00
2019-04-25T11:48:48.145Z,58880.00
2019-04-25T11:49:47.849Z,20224.00
2019-04-25T11:50:50.341Z,22624.00
2019-04-25T11:51:48.194Z,20864.00
2019-04-25T11:52:47.334Z,20128.00
2019-04-25T11:53:48.387Z,18720.00
2019-04-25T11:54:48.125Z,16384.00
2019-04-25T11:55:48.178Z,15420.00
2019-04-25T11:56:47.379Z,10536.00
2019-04-25T11:57:49.899Z,12752.00
2019-04-25T11:58:48.094Z,14280.00
2019-04-25T11:59:49.225Z,15484.00
2019-04-25T12:00:47.336Z,15092.00
2019-04-25T12:01:47.633Z,16448.00
2019-04-25T12:02:47.555Z,17152.00
2019-04-25T12:03:48.913Z,16832.00
2019-04-25T12:04:47.785Z,52352.00
2019-04-25T12:05:48.429Z,21568.00
2019-04-25T12:06:47.622Z,37440.00
2019-04-25T12:07:47.910Z,29472.00
2019-04-25T12:08:47.719Z,30752.00
2019-04-25T12:09:48.128Z,19296.00
2019-04-25T12:10:47.886Z,17632.00
2019-04-25T12:11:48.534Z,34592.00
2019-04-25T12:12:47.473Z,42304.00
2019-04-25T12:13:48.099Z,52160.00
2019-04-25T12:14:47.612Z,44352.00
2019-04-25T12:15:47.324Z,24480.00
2019-04-25T12:16:49.119Z,35136.00
2019-04-25T12:17:47.465Z,27904.00
2019-04-25T12:18:49.211Z,19424.00
2019-04-25T12:19:47.346Z,18656.00
2019-04-25T12:20:47.516Z,21184.00
2019-04-25T12:21:48.187Z,43616.00